Time;durP1;ratioP1;P1;durP2;ratioP2;P2;SDS_P1;SDS_P2;PMS_P1;PMS_P2;Temp;Humidity;BMP_temperature;BMP_pressure;BME280_temperature;BME280_humidity;BME280_pressure;Samples;Min_cycle;Max_cycle;Signal;HPM_P1;HPM_P2
2021/12/24 00:00:31;;;;;;;197.05;71.35;;;;;;;6.59;100.00;100451.50;5055770;28;20467;-61
2021/12/24 00:02:57;;;;;;;185.33;71.00;;;;;;;6.60;100.00;100451.34;5056667;28;20027;-61
2021/12/24 00:05:23;;;;;;;177.60;70.63;;;;;;;6.63;100.00;100458.13;5061457;28;20461;-61
2021/12/24 00:07:48;;;;;;;172.70;71.67;;;;;;;6.63;100.00;100453.66;5060281;28;20077;-61
2021/12/24 00:10:15;;;;;;;174.33;68.77;;;;;;;6.63;100.00;100447.56;5055331;28;20032;-61
2021/12/24 00:12:46;;;;;;;171.30;69.30;;;;;;;6.66;100.00;100444.66;5060479;28;20033;-61
2021/12/24 00:15:33;;;;;;;167.47;66.97;;;;;;;6.67;100.00;100443.66;5057828;28;20025;-61
2021/12/24 00:18:06;;;;;;;164.83;65.93;;;;;;;6.69;100.00;100450.44;5061375;28;20047;-61
2021/12/24 00:21:34;;;;;;;165.80;67.23;;;;;;;6.69;100.00;100452.25;5058492;28;20540;-61
2021/12/24 00:35:06;;;;;;;172.87;67.87;;;;;;;6.69;100.00;100454.88;5063254;28;20044;-61
2021/12/24 00:37:09;;;;;;;153.77;66.80;;;;;;;6.78;100.00;100431.03;5055775;28;20158;-61
2021/12/24 00:39:40;;;;;;;152.00;66.80;;;;;;;6.80;100.00;100422.94;5056889;28;20071;-61
2021/12/24 00:42:06;;;;;;;158.50;65.87;;;;;;;6.82;100.00;100432.34;5053947;28;20463;-61
2021/12/24 00:44:31;;;;;;;154.00;67.17;;;;;;;6.87;100.00;100423.97;5061742;28;20498;-61
2021/12/24 00:46:57;;;;;;;154.50;68.10;;;;;;;6.89;100.00;100423.81;5055118;28;20254;-61
2021/12/24 00:49:22;;;;;;;159.53;67.33;;;;;;;6.90;100.00;100431.56;5055114;28;20025;-61
2021/12/24 00:57:10;;;;;;;162.90;68.77;;;;;;;6.96;100.00;100415.13;5033651;28;20110;-61
2021/12/24 00:59:35;;;;;;;157.27;67.90;;;;;;;6.98;100.00;100409.69;5043811;28;20476;-61
2021/12/24 01:02:03;;;;;;;150.67;68.27;;;;;;;6.98;100.00;100413.16;5057876;28;20052;-61
2021/12/24 01:04:30;;;;;;;156.20;69.20;;;;;;;7.03;100.00;100415.31;5057934;28;20024;-61
2021/12/24 01:06:55;;;;;;;156.17;67.10;;;;;;;7.05;100.00;100408.88;5061264;28;20111;-61
2021/12/24 01:09:20;;;;;;;153.27;68.05;;;;;;;7.07;100.00;100427.22;5054912;28;20113;-61
2021/12/24 01:11:46;;;;;;;144.00;66.73;;;;;;;7.10;100.00;100418.97;5063510;28;20086;-61
2021/12/24 01:14:11;;;;;;;148.60;64.77;;;;;;;7.13;100.00;100411.56;5061824;28;20479;-62
2021/12/24 01:16:51;;;;;;;145.40;65.37;;;;;;;7.15;100.00;100414.03;5058411;28;20399;-61
2021/12/24 01:19:22;;;;;;;145.83;64.17;;;;;;;7.15;100.00;100399.03;5061142;28;20055;-61
2021/12/24 01:24:22;;;;;;;144.70;67.37;;;;;;;7.22;100.00;100401.00;5070115;28;20036;-60
2021/12/24 01:42:52;;;;;;;162.33;68.83;;;;;;;7.46;100.00;100411.66;5060728;28;20082;-61
2021/12/24 01:45:20;;;;;;;165.85;71.72;;;;;;;7.48;100.00;100399.13;5066060;28;20048;-61
2021/12/24 01:47:46;;;;;;;167.85;67.60;;;;;;;7.49;100.00;100406.06;5059430;28;20035;-61
2021/12/24 01:50:14;;;;;;;166.90;70.07;;;;;;;7.54;100.00;100400.31;5063562;28;20063;-61
2021/12/24 01:52:39;;;;;;;180.80;67.40;;;;;;;7.60;100.00;100405.78;5061688;28;20565;-61
2021/12/24 01:55:07;;;;;;;181.27;72.93;;;;;;;7.62;100.00;100401.16;5051590;28;20128;-61
2021/12/24 01:57:32;;;;;;;182.77;71.20;;;;;;;7.65;100.00;100400.81;5055144;28;20071;-61
2021/12/24 01:59:59;;;;;;;176.40;68.90;;;;;;;7.66;100.00;100402.47;5059617;28;20033;-61
2021/12/24 02:02:25;;;;;;;177.97;70.33;;;;;;;7.71;100.00;100404.63;5056879;28;20085;-61
2021/12/24 02:04:50;;;;;;;170.05;68.15;;;;;;;7.70;100.00;100382.66;5057791;28;20033;-61
2021/12/24 02:07:15;;;;;;;189.75;69.43;;;;;;;7.80;100.00;100402.81;5058978;28;20265;-61
2021/12/24 02:09:41;;;;;;;189.52;68.60;;;;;;;7.83;100.00;100398.06;5057246;28;20024;-61
2021/12/24 02:12:09;;;;;;;172.00;64.22;;;;;;;7.86;100.00;100394.25;5060366;28;20082;-61
2021/12/24 02:14:37;;;;;;;179.98;67.68;;;;;;;7.88;100.00;100395.75;5057377;28;20024;-61
2021/12/24 02:17:31;;;;;;;178.15;66.50;;;;;;;7.93;100.00;100403.19;5056678;28;20394;-61
2021/12/24 02:28:21;;;;;;;144.15;54.60;;;;;;;8.10;100.00;100410.13;5054095;28;20534;-61
2021/12/24 02:30:48;;;;;;;138.15;56.22;;;;;;;8.12;100.00;100407.34;5065413;28;20020;-61
2021/12/24 02:33:14;;;;;;;137.80;55.75;;;;;;;8.17;100.00;100411.13;5062939;28;20035;-61
2021/12/24 02:35:40;;;;;;;145.90;58.88;;;;;;;8.21;100.00;100383.34;5059353;28;20032;-61
2021/12/24 02:38:07;;;;;;;126.82;55.40;;;;;;;8.25;100.00;100402.34;5058943;28;20032;-61
2021/12/24 02:40:33;;;;;;;122.22;53.45;;;;;;;8.28;100.00;100392.25;5052086;28;20420;-61
2021/12/24 02:43:00;;;;;;;121.13;51.03;;;;;;;8.28;100.00;100400.19;5056162;28;20384;-60
2021/12/24 02:45:28;;;;;;;120.30;49.35;;;;;;;8.31;100.00;100391.94;5058613;28;20036;-61
2021/12/24 02:56:15;;;;;;;107.72;43.28;;;;;;;8.37;100.00;100390.47;5062831;28;20409;-61
2021/12/24 02:58:51;;;;;;;114.75;49.30;;;;;;;8.40;100.00;100395.44;5060047;28;20134;-61
2021/12/24 03:01:21;;;;;;;106.85;44.70;;;;;;;8.38;100.00;100392.97;5062149;28;20513;-61
2021/12/24 03:03:48;;;;;;;99.28;42.35;;;;;;;8.40;100.00;100382.22;5061725;28;20016;-60
2021/12/24 03:06:23;;;;;;;103.50;45.75;;;;;;;8.39;100.00;100388.50;5060469;28;20032;-61
2021/12/24 03:08:49;;;;;;;119.13;46.53;;;;;;;8.40;100.00;100386.69;5057339;28;20111;-61
2021/12/24 03:11:14;;;;;;;104.10;44.38;;;;;;;8.38;100.00;100371.81;5062263;28;20115;-62
2021/12/24 03:13:41;;;;;;;108.53;45.90;;;;;;;8.36;100.00;100379.06;5064280;28;20039;-61
2021/12/24 03:16:08;;;;;;;113.00;44.85;;;;;;;8.38;100.00;100385.03;5054397;28;20020;-61
2021/12/24 03:18:38;;;;;;;101.40;43.65;;;;;;;8.40;100.00;100389.31;5057050;28;20136;-61
2021/12/24 03:21:10;;;;;;;101.32;43.83;;;;;;;8.38;100.00;100381.53;5056648;28;20029;-61
2021/12/24 03:23:40;;;;;;;105.15;43.60;;;;;;;8.40;100.00;100391.97;5059645;28;20028;-61
2021/12/24 03:26:08;;;;;;;101.80;44.67;;;;;;;8.41;100.00;100388.34;5063825;28;20424;-61
2021/12/24 03:28:34;;;;;;;88.70;39.97;;;;;;;8.40;100.00;100386.69;5059308;28;20554;-61
2021/12/24 03:31:00;;;;;;;99.15;42.25;;;;;;;8.37;100.00;100380.69;5057125;28;20037;-61
2021/12/24 03:33:26;;;;;;;100.97;43.20;;;;;;;8.39;100.00;100383.22;5063073;28;20048;-61
2021/12/24 03:35:51;;;;;;;80.38;37.28;;;;;;;8.37;100.00;100390.47;5063747;28;20502;-61
2021/12/24 03:38:17;;;;;;;79.85;37.13;;;;;;;8.41;100.00;100383.03;5057544;28;20063;-61
2021/12/24 03:40:42;;;;;;;88.60;39.63;;;;;;;8.37;100.00;100395.75;5066307;28;20410;-61
2021/12/24 03:43:07;;;;;;;71.18;35.13;;;;;;;8.41;100.00;100396.28;5054536;28;20021;-61
2021/12/24 03:46:17;;;;;;;84.32;37.67;;;;;;;8.39;100.00;100399.09;5057785;28;20036;-61
2021/12/24 03:48:38;;;;;;;73.72;36.20;;;;;;;8.40;100.00;100394.63;5044120;28;20040;-61
2021/12/24 03:51:25;;;;;;;72.55;34.25;;;;;;;8.40;100.00;100395.44;5051457;28;20029;-60
2021/12/24 03:56:35;;;;;;;66.35;31.52;;;;;;;8.44;100.00;100398.56;5058324;28;20035;-61
2021/12/24 03:59:00;;;;;;;55.13;29.92;;;;;;;8.42;100.00;100401.38;5056419;28;20427;-61
2021/12/24 04:01:26;;;;;;;54.88;27.38;;;;;;;8.42;100.00;100389.97;5061758;28;20029;-61
2021/12/24 04:03:52;;;;;;;61.33;29.67;;;;;;;8.44;100.00;100403.88;5065410;28;20020;-61
2021/12/24 04:06:17;;;;;;;58.85;26.73;;;;;;;8.43;100.00;100396.94;5054782;28;20039;-61
2021/12/24 04:08:42;;;;;;;55.17;26.35;;;;;;;8.43;100.00;100392.47;5058284;28;20107;-61
2021/12/24 04:11:08;;;;;;;55.70;25.45;;;;;;;8.38;100.00;100385.03;5058866;28;20025;-61
2021/12/24 04:13:33;;;;;;;50.72;23.75;;;;;;;8.35;100.00;100385.34;5052702;28;20033;-61
2021/12/24 04:15:59;;;;;;;50.40;23.30;;;;;;;8.31;100.00;100391.94;5060384;28;20040;-61
2021/12/24 04:26:22;;;;;;;51.65;20.80;;;;;;;8.35;100.00;100411.78;5049544;28;20043;-61
2021/12/24 04:28:47;;;;;;;41.05;20.85;;;;;;;8.42;100.00;100401.38;5054436;28;20434;-61
2021/12/24 04:31:13;;;;;;;50.50;21.25;;;;;;;8.42;100.00;100405.84;5055771;28;20047;-61
2021/12/24 04:33:45;;;;;;;42.28;20.67;;;;;;;8.46;100.00;100407.16;5051415;28;20029;-61
2021/12/24 04:36:35;;;;;;;40.70;20.45;;;;;;;8.46;100.00;100402.72;5056944;28;20128;-61
2021/12/24 04:39:36;;;;;;;43.70;18.75;;;;;;;8.45;100.00;100397.59;5052618;28;20098;-61
2021/12/24 05:03:42;;;;;;;41.75;16.10;;;;;;;8.43;100.00;100389.00;5054390;28;20040;-61
2021/12/24 05:06:31;;;;;;;44.37;16.80;;;;;;;8.45;100.00;100392.28;5052023;28;20083;-61
2021/12/24 05:08:56;;;;;;;34.33;17.13;;;;;;;8.43;100.00;100407.50;5059386;28;20068;-61
2021/12/24 05:11:23;;;;;;;38.05;16.20;;;;;;;8.42;100.00;100403.22;5051106;28;20024;-61
2021/12/24 05:13:50;;;;;;;33.50;15.88;;;;;;;8.41;100.00;100406.84;5053136;28;20166;-61
2021/12/24 05:16:26;;;;;;;36.45;15.32;;;;;;;8.39;99.98;100409.66;5060209;28;20029;-61
2021/12/24 05:21:37;;;;;;;41.00;19.40;;;;;;;8.34;100.00;100396.09;5055968;28;20041;-61
2021/12/24 05:24:07;;;;;;;31.67;16.77;;;;;;;8.34;100.00;100402.19;5060681;28;20033;-61
2021/12/24 05:26:34;;;;;;;47.17;17.63;;;;;;;8.33;99.75;100397.03;5061150;28;20029;-61
2021/12/24 05:29:00;;;;;;;37.30;15.32;;;;;;;8.36;100.00;100410.78;5064397;28;20500;-61
2021/12/24 05:31:28;;;;;;;33.25;15.85;;;;;;;8.35;99.80;100413.63;5057504;28;20105;-61
2021/12/24 05:33:53;;;;;;;41.53;15.85;;;;;;;8.36;99.62;100404.69;5054209;28;20036;-61
2021/12/24 05:36:18;;;;;;;41.28;15.48;;;;;;;8.33;99.20;100411.13;5060139;28;20035;-61
2021/12/24 05:38:44;;;;;;;36.88;15.55;;;;;;;8.29;99.77;100417.72;5054391;28;20041;-61
2021/12/24 05:41:10;;;;;;;34.58;16.08;;;;;;;8.31;99.13;100407.78;5062021;28;20024;-61
2021/12/24 05:43:36;;;;;;;35.70;14.88;;;;;;;8.30;99.45;100421.19;5062992;28;20028;-61
2021/12/24 05:46:02;;;;;;;37.28;15.27;;;;;;;8.27;99.42;100422.34;5063127;28;20024;-61
2021/12/24 05:48:27;;;;;;;35.28;15.18;;;;;;;8.26;99.06;100428.63;5061470;28;20036;-61
2021/12/24 05:50:53;;;;;;;36.78;15.27;;;;;;;8.28;98.66;100412.59;5062955;28;20036;-61
2021/12/24 05:53:18;;;;;;;33.40;14.73;;;;;;;8.27;98.63;100430.28;5058250;28;20396;-61
2021/12/24 05:55:43;;;;;;;34.22;13.50;;;;;;;8.25;98.68;100418.22;5062257;28;20519;-61
2021/12/24 05:58:09;;;;;;;35.58;14.05;;;;;;;8.24;98.50;100437.72;5052280;28;20021;-61
2021/12/24 06:00:36;;;;;;;34.83;14.35;;;;;;;8.23;98.70;100425.50;5067220;28;20024;-61
2021/12/24 06:03:02;;;;;;;37.88;13.45;;;;;;;8.23;98.67;100428.97;5057641;28;20525;-61
2021/12/24 06:05:27;;;;;;;35.40;13.82;;;;;;;8.20;98.30;100431.94;5060667;28;20028;-60
2021/12/24 06:07:52;;;;;;;33.28;13.27;;;;;;;8.21;98.60;100428.31;5048624;28;20036;-61
2021/12/24 06:10:18;;;;;;;39.92;13.63;;;;;;;8.21;98.49;100430.97;5064353;28;20388;-61
2021/12/24 06:12:43;;;;;;;35.05;13.77;;;;;;;8.18;98.50;100436.59;5058261;28;20028;-61
2021/12/24 06:15:09;;;;;;;35.20;13.40;;;;;;;8.16;98.33;100443.03;5065894;28;20044;-60
2021/12/24 06:17:37;;;;;;;32.55;13.77;;;;;;;8.16;98.55;100446.50;5063912;28;20116;-61
2021/12/24 06:20:05;;;;;;;36.28;13.25;;;;;;;8.14;98.21;100437.06;5064240;28;20040;-61
2021/12/24 06:22:30;;;;;;;36.60;14.00;;;;;;;8.13;98.62;100441.53;5055860;28;20021;-61
2021/12/24 06:24:55;;;;;;;38.85;14.43;;;;;;;8.16;98.22;100437.75;5057982;28;20036;-61
2021/12/24 06:27:21;;;;;;;31.17;13.93;;;;;;;8.14;98.48;100437.91;5056409;28;20119;-61
2021/12/24 06:29:46;;;;;;;32.08;12.93;;;;;;;8.16;98.32;100435.91;5052968;28;20369;-61
2021/12/24 06:32:11;;;;;;;34.95;14.15;;;;;;;8.15;98.17;100434.28;5063184;28;20031;-61
2021/12/24 06:34:37;;;;;;;34.53;14.43;;;;;;;8.15;97.83;100436.91;5056165;28;20082;-61
2021/12/24 06:37:03;;;;;;;35.22;14.30;;;;;;;8.14;98.28;100440.56;5053004;28;20033;-61
2021/12/24 06:39:29;;;;;;;40.13;14.40;;;;;;;8.12;98.19;100444.34;5057695;28;20021;-61
2021/12/24 06:41:54;;;;;;;35.22;13.68;;;;;;;8.11;98.07;100435.59;5055498;28;20032;-61
2021/12/24 06:44:21;;;;;;;32.15;13.70;;;;;;;8.11;98.11;100435.59;5052906;28;20109;-60
2021/12/24 06:46:47;;;;;;;31.08;14.15;;;;;;;8.08;98.00;100427.97;5069086;28;20169;-61
2021/12/24 06:49:13;;;;;;;32.72;14.43;;;;;;;8.06;98.32;100422.00;5057452;28;20116;-61
2021/12/24 06:51:39;;;;;;;33.55;14.93;;;;;;;8.07;98.29;100423.66;5055193;28;20094;-61
2021/12/24 06:54:05;;;;;;;35.58;14.27;;;;;;;8.07;98.39;100427.13;5069091;28;20036;-60
2021/12/24 06:56:30;;;;;;;37.97;14.43;;;;;;;8.05;98.09;100429.13;5036101;28;20033;-60
2021/12/24 06:58:56;;;;;;;33.72;15.45;;;;;;;8.05;97.96;100434.41;5054944;28;20388;-61
2021/12/24 07:01:21;;;;;;;35.60;16.17;;;;;;;8.06;98.09;100440.53;5070407;28;20392;-61
2021/12/24 07:03:47;;;;;;;43.20;16.42;;;;;;;8.06;98.21;100438.69;5059474;28;20024;-61
2021/12/24 07:06:12;;;;;;;36.58;15.35;;;;;;;8.03;97.86;100425.81;5052914;28;20039;-61
2021/12/24 07:08:37;;;;;;;41.47;16.42;;;;;;;8.04;98.06;100424.00;5055776;28;20051;-61
2021/12/24 07:11:04;;;;;;;44.63;17.05;;;;;;;8.02;98.05;100432.09;5057976;28;20065;-61
2021/12/24 07:13:29;;;;;;;37.88;15.75;;;;;;;8.01;98.06;100426.97;5061925;28;20075;-61
2021/12/24 07:15:55;;;;;;;36.53;15.55;;;;;;;8.02;98.08;100429.44;5057316;28;20425;-61
2021/12/24 07:18:20;;;;;;;42.10;16.45;;;;;;;8.01;97.98;100424.31;5051714;28;20036;-61
2021/12/24 07:20:46;;;;;;;36.28;14.70;;;;;;;7.99;98.08;100424.50;5055373;28;20168;-61
2021/12/24 07:23:11;;;;;;;40.38;15.02;;;;;;;8.02;97.98;100429.44;5033887;28;20029;-61
2021/12/24 07:25:37;;;;;;;36.78;15.25;;;;;;;7.99;98.06;100429.78;5060135;28;20162;-61
2021/12/24 07:28:03;;;;;;;43.60;15.90;;;;;;;8.02;97.95;100439.19;5062889;28;20032;-61
2021/12/24 07:30:29;;;;;;;35.72;14.25;;;;;;;8.03;97.65;100436.38;5056331;28;20144;-61
2021/12/24 07:32:55;;;;;;;39.92;14.60;;;;;;;8.02;98.13;100439.19;5059935;28;20527;-61
2021/12/24 07:35:20;;;;;;;36.35;14.60;;;;;;;8.00;97.77;100442.00;5061577;28;20059;-61
2021/12/24 07:37:46;;;;;;;40.20;14.80;;;;;;;8.01;98.05;100453.41;5055622;28;20064;-62
2021/12/24 07:40:15;;;;;;;36.80;14.18;;;;;;;8.01;98.10;100445.47;5062984;28;20027;-61
2021/12/24 07:42:40;;;;;;;38.85;14.23;;;;;;;8.00;97.78;100444.66;5067925;28;20044;-61
2021/12/24 07:45:08;;;;;;;35.40;14.60;;;;;;;8.01;97.50;100448.94;5054727;28;20387;-61
2021/12/24 07:47:38;;;;;;;34.97;14.10;;;;;;;8.00;97.85;100434.06;5057115;28;20104;-62
2021/12/24 07:50:18;;;;;;;33.15;13.95;;;;;;;7.99;97.61;100440.34;5061381;28;20066;-61
2021/12/24 07:52:44;;;;;;;31.55;13.93;;;;;;;7.99;97.75;100443.00;5051318;28;20220;-61
2021/12/24 07:55:10;;;;;;;35.78;14.93;;;;;;;8.01;97.26;100445.47;5059400;28;20021;-61
2021/12/24 07:57:37;;;;;;;36.78;13.50;;;;;;;8.00;97.29;100442.00;5057011;28;20024;-61
2021/12/24 08:00:08;;;;;;;34.63;13.43;;;;;;;8.00;97.65;100442.00;5051578;28;20047;-61
2021/12/24 08:02:33;;;;;;;34.25;14.07;;;;;;;8.01;97.63;100446.31;5058612;28;20059;-61
2021/12/24 08:04:58;;;;;;;39.63;14.38;;;;;;;8.04;97.45;100450.44;5060086;28;20060;-61
2021/12/24 08:07:24;;;;;;;29.17;13.15;;;;;;;8.03;97.05;100446.13;5057439;28;20031;-61
2021/12/24 08:09:51;;;;;;;36.67;13.10;;;;;;;8.02;97.48;100449.78;5058071;28;20024;-61
2021/12/24 08:12:17;;;;;;;36.90;12.90;;;;;;;8.01;97.31;100451.59;5057087;28;20115;-62
2021/12/24 08:14:43;;;;;;;32.90;12.85;;;;;;;8.01;97.29;100442.84;5056952;28;20036;-61
2021/12/24 08:17:09;;;;;;;32.00;12.13;;;;;;;8.03;97.03;100438.22;5052310;28;20123;-61
2021/12/24 08:19:35;;;;;;;31.13;12.48;;;;;;;8.02;97.01;100436.56;5054510;28;20055;-61
2021/12/24 08:22:00;;;;;;;30.70;11.77;;;;;;;8.05;97.15;100442.34;5059014;28;20071;-61
2021/12/24 08:24:26;;;;;;;41.25;13.25;;;;;;;8.02;96.80;100429.44;5055229;28;20067;-61
2021/12/24 08:26:51;;;;;;;32.65;13.80;;;;;;;8.01;96.82;100427.81;5060199;28;20048;-61
2021/12/24 08:29:17;;;;;;;32.22;14.15;;;;;;;8.03;97.18;100427.63;5053908;28;20067;-61
2021/12/24 08:31:43;;;;;;;37.00;13.93;;;;;;;8.01;96.76;100429.63;5054752;28;20025;-61
2021/12/24 08:34:08;;;;;;;34.08;15.05;;;;;;;8.00;96.77;100434.06;5055544;28;20025;-61
2021/12/24 08:36:34;;;;;;;32.13;14.27;;;;;;;8.01;96.66;100438.38;5052418;28;20268;-61
2021/12/24 08:38:59;;;;;;;39.28;15.23;;;;;;;8.00;97.08;100451.75;5051532;28;20074;-62
2021/12/24 08:41:25;;;;;;;41.08;15.75;;;;;;;7.99;96.86;100442.19;5057681;28;20503;-61
2021/12/24 08:43:50;;;;;;;39.13;14.57;;;;;;;8.01;97.14;100440.19;5052512;28;20081;-61
2021/12/24 08:46:16;;;;;;;35.50;14.65;;;;;;;7.98;97.16;100437.88;5061904;28;20494;-61
2021/12/24 08:48:41;;;;;;;34.92;14.82;;;;;;;7.98;97.34;100437.88;5048037;28;20606;-61
2021/12/24 08:51:07;;;;;;;34.55;14.40;;;;;;;8.00;97.00;100435.91;5059861;28;20480;-61
2021/12/24 08:53:32;;;;;;;40.05;15.13;;;;;;;7.98;96.81;100428.13;5060779;28;20032;-61
2021/12/24 08:55:58;;;;;;;38.08;14.48;;;;;;;7.98;97.18;100427.31;5059731;28;20074;-61
2021/12/24 08:58:23;;;;;;;39.47;15.15;;;;;;;7.98;97.34;100425.47;5065688;28;20540;-62
2021/12/24 09:00:48;;;;;;;36.95;13.57;;;;;;;8.02;97.14;100433.91;5062256;28;20452;-60
2021/12/24 09:03:14;;;;;;;39.17;14.23;;;;;;;8.01;96.98;100433.09;5058324;28;20073;-61
2021/12/24 09:05:39;;;;;;;35.85;13.50;;;;;;;8.04;97.27;100431.94;5067858;28;20032;-61
2021/12/24 09:08:05;;;;;;;37.85;14.10;;;;;;;8.04;97.04;100416.88;5060348;28;20028;-61
2021/12/24 09:10:30;;;;;;;39.95;13.90;;;;;;;8.05;96.88;100441.50;5065866;28;20491;-61
2021/12/24 09:12:56;;;;;;;39.80;13.63;;;;;;;8.09;97.24;100434.91;5064774;28;20017;-62
2021/12/24 09:15:23;;;;;;;37.47;13.57;;;;;;;8.06;97.20;100424.66;5065260;28;20032;-61
2021/12/24 09:17:48;;;;;;;44.80;14.48;;;;;;;8.06;96.88;100432.59;5054997;28;20021;-61
2021/12/24 09:20:18;;;;;;;41.25;13.60;;;;;;;8.05;97.28;100438.88;5065993;28;20040;-61
2021/12/24 09:22:45;;;;;;;33.75;13.52;;;;;;;8.05;96.84;100433.59;5058584;28;20020;-61
2021/12/24 09:25:10;;;;;;;39.13;14.35;;;;;;;8.04;96.81;100431.94;5062982;28;20081;-61
2021/12/24 09:27:35;;;;;;;34.80;14.32;;;;;;;8.06;96.92;100429.94;5054430;28;20017;-62
2021/12/24 09:30:01;;;;;;;35.80;14.27;;;;;;;8.07;96.88;100437.72;5053709;28;20025;-61
2021/12/24 09:32:28;;;;;;;38.08;15.05;;;;;;;8.07;96.78;100435.06;5056397;28;20400;-61
2021/12/24 09:34:54;;;;;;;37.25;14.30;;;;;;;8.07;96.62;100428.94;5054793;28;20031;-61
2021/12/24 09:37:20;;;;;;;36.22;14.35;;;;;;;8.12;96.64;100439.06;5060295;28;20404;-61
2021/12/24 09:39:45;;;;;;;42.78;14.73;;;;;;;8.08;96.64;100436.72;5059635;28;20016;-61
2021/12/24 09:42:10;;;;;;;34.40;13.88;;;;;;;8.09;96.67;100432.25;5056658;28;20052;-61
2021/12/24 09:44:36;;;;;;;42.08;13.95;;;;;;;8.12;96.73;100434.59;5065424;28;20487;-61
2021/12/24 09:47:01;;;;;;;38.85;13.07;;;;;;;8.17;96.84;100429.63;5058655;28;20042;-62
2021/12/24 09:49:27;;;;;;;31.77;13.02;;;;;;;8.16;96.91;100437.75;5064370;28;20091;-61
2021/12/24 09:51:53;;;;;;;37.38;12.45;;;;;;;8.17;96.89;100439.41;5058026;28;20041;-62
2021/12/24 09:54:21;;;;;;;35.38;13.02;;;;;;;8.15;96.60;100428.97;5063084;28;20059;-61
2021/12/24 09:56:48;;;;;;;46.30;13.82;;;;;;;8.15;96.59;100418.41;5060455;28;20492;-61
2021/12/24 09:59:14;;;;;;;40.25;13.32;;;;;;;8.15;96.51;100426.34;5034568;28;20025;-61
2021/12/24 10:01:43;;;;;;;36.80;13.90;;;;;;;8.13;96.50;100416.91;5056120;28;20036;-61
2021/12/24 10:04:17;;;;;;;34.90;12.60;;;;;;;8.13;96.62;100417.75;5059887;28;20024;-61
2021/12/24 10:06:54;;;;;;;32.17;13.07;;;;;;;8.14;96.58;100410.63;5057967;28;20032;-61
2021/12/24 10:09:21;;;;;;;36.20;13.32;;;;;;;8.15;96.18;100407.81;5062219;28;20389;-61
2021/12/24 10:11:55;;;;;;;45.25;12.75;;;;;;;8.17;96.68;100423.53;5055561;28;20021;-61
2021/12/24 10:14:28;;;;;;;34.83;14.48;;;;;;;8.16;96.48;100421.88;5058148;28;20044;-61
2021/12/24 10:16:54;;;;;;;36.45;13.88;;;;;;;8.16;96.46;100422.69;5059752;28;20027;-61
2021/12/24 10:19:20;;;;;;;40.08;14.52;;;;;;;8.22;96.35;100421.19;5060873;28;20944;-61
2021/12/24 10:21:46;;;;;;;33.92;14.20;;;;;;;8.29;96.06;100425.66;5058022;28;20116;-61
2021/12/24 10:24:18;;;;;;;45.80;15.63;;;;;;;8.34;96.57;100423.38;5059081;28;20043;-61
2021/12/24 10:26:45;;;;;;;43.25;15.70;;;;;;;8.47;96.42;100419.41;5063903;28;20514;-61
2021/12/24 10:29:14;;;;;;;38.05;15.02;;;;;;;8.49;96.95;100422.72;5053515;28;20070;-61
2021/12/24 10:31:43;;;;;;;;;;;;;;;8.54;96.37;100421.22;5053717;28;20058;-61
2021/12/24 10:34:10;;;;;;;32.58;15.48;;;;;;;8.44;95.69;100419.75;5061222;28;19923;-61
2021/12/24 10:36:55;;;;;;;35.50;14.90;;;;;;;8.44;95.93;100412.63;5061535;28;20389;-61
2021/12/24 10:39:23;;;;;;;38.85;15.73;;;;;;;8.40;95.90;100413.97;5054463;28;20096;-61
2021/12/24 10:41:51;;;;;;;40.80;16.55;;;;;;;8.36;96.23;100410.78;5055921;28;20017;-61
2021/12/24 10:44:24;;;;;;;44.92;16.88;;;;;;;8.38;95.82;100410.63;5059424;28;20396;-61
2021/12/24 10:47:18;;;;;;;46.47;18.05;;;;;;;8.42;96.14;100405.84;5059354;28;20097;-61
2021/12/24 10:50:11;;;;;;;43.75;18.23;;;;;;;8.41;96.49;100402.38;5050492;28;20539;-61
2021/12/24 10:52:47;;;;;;;47.47;18.13;;;;;;;8.40;96.26;100407.84;5051727;28;20063;-61
2021/12/24 10:55:16;;;;;;;44.67;18.92;;;;;;;8.38;96.27;100400.03;5063742;28;20491;-61
2021/12/24 10:57:44;;;;;;;38.85;16.75;;;;;;;8.37;95.74;100406.34;5052001;28;20492;-61
2021/12/24 11:00:22;;;;;;;41.92;17.33;;;;;;;8.35;96.06;100403.03;5056655;28;20419;-61
2021/12/24 11:02:51;;;;;;;37.15;17.15;;;;;;;8.33;95.53;100407.63;5058664;28;20037;-61
2021/12/24 11:05:38;;;;;;;42.90;18.27;;;;;;;8.31;95.94;100410.44;5058614;28;20078;-61
2021/12/24 11:08:08;;;;;;;41.40;17.83;;;;;;;8.29;95.71;100409.78;5057155;28;20025;-61
2021/12/24 11:10:37;;;;;;;43.42;18.38;;;;;;;8.31;95.85;100413.09;5055954;28;20024;-61
2021/12/24 11:13:10;;;;;;;42.38;17.10;;;;;;;8.36;95.53;100404.69;5055382;28;20036;-61
2021/12/24 11:15:48;;;;;;;41.85;15.35;;;;;;;8.35;95.77;100406.50;5063463;28;20031;-61
2021/12/24 11:18:19;;;;;;;37.65;17.80;;;;;;;8.34;95.51;100404.84;5057710;28;20105;-61
2021/12/24 11:20:51;;;;;;;43.10;16.73;;;;;;;8.36;95.52;100405.50;5056680;28;20325;-61
2021/12/24 11:23:18;;;;;;;44.35;17.63;;;;;;;8.37;95.90;100401.88;5053837;28;20035;-61
2021/12/24 11:25:54;;;;;;;41.03;17.75;;;;;;;8.37;95.42;100404.50;5064671;28;20478;-61
2021/12/24 11:28:21;;;;;;;38.65;17.25;;;;;;;8.38;95.36;100408.84;5054353;28;20052;-61
2021/12/24 11:30:54;;;;;;;41.55;17.60;;;;;;;8.38;95.51;100407.97;5064083;28;20047;-61
2021/12/24 11:33:23;;;;;;;47.28;17.27;;;;;;;8.40;95.79;100405.19;5058025;28;20701;-61
2021/12/24 11:35:50;;;;;;;42.17;16.88;;;;;;;8.44;95.42;100409.16;5054946;28;20035;-61
2021/12/24 11:38:20;;;;;;;42.58;17.83;;;;;;;8.44;95.51;100407.34;5055909;28;20488;-62
2021/12/24 11:40:49;;;;;;;43.88;17.83;;;;;;;8.49;95.47;100414.78;5053881;28;20033;-61
2021/12/24 11:43:17;;;;;;;43.55;16.77;;;;;;;8.52;95.40;100401.19;5049139;28;20422;-61
2021/12/24 11:45:42;;;;;;;45.10;17.27;;;;;;;8.55;95.25;100395.56;5049553;28;20021;-61
2021/12/24 11:48:07;;;;;;;43.45;17.27;;;;;;;8.59;94.97;100405.66;5049886;28;20024;-62
2021/12/24 11:50:33;;;;;;;46.83;17.92;;;;;;;8.58;95.16;100398.69;5055506;28;20033;-62
2021/12/24 11:53:06;;;;;;;41.42;17.85;;;;;;;8.55;94.97;100392.91;5051952;28;20032;-61
2021/12/24 11:55:34;;;;;;;45.17;17.80;;;;;;;8.58;94.89;100395.22;5054939;28;20037;-61
2021/12/24 11:58:07;;;;;;;37.47;16.20;;;;;;;8.59;94.77;100395.06;5050923;28;20209;-61
2021/12/24 12:00:38;;;;;;;43.83;18.30;;;;;;;8.62;95.15;100394.72;5057690;28;20056;-61
2021/12/24 12:03:04;;;;;;;39.35;17.33;;;;;;;8.62;94.82;100389.44;5059235;28;20103;-62
2021/12/24 12:05:34;;;;;;;45.08;19.05;;;;;;;8.64;94.87;100399.84;5059206;28;20104;-61
2021/12/24 12:08:27;;;;;;;44.85;17.42;;;;;;;8.68;94.49;100395.88;5060166;28;20847;-62
2021/12/24 12:11:02;;;;;;;48.30;18.27;;;;;;;8.69;94.47;100389.59;5057697;28;20039;-62
2021/12/24 12:13:44;;;;;;;40.08;17.60;;;;;;;8.68;94.49;100380.00;5061383;28;20031;-62
2021/12/24 12:16:17;;;;;;;42.72;18.52;;;;;;;8.67;94.50;100389.78;5053800;28;20420;-62
2021/12/24 12:18:59;;;;;;;42.78;16.58;;;;;;;8.68;94.63;100396.72;5063890;28;20060;-61
2021/12/24 12:21:35;;;;;;;45.85;16.73;;;;;;;8.73;94.28;100380.31;5070063;28;20480;-61
2021/12/24 12:26:41;;;;;;;44.67;17.77;;;;;;;8.73;93.66;100377.69;5055378;28;20056;-62
2021/12/24 12:29:24;;;;;;;50.15;18.35;;;;;;;8.74;93.94;100379.31;5061936;28;20512;-61
2021/12/24 12:32:24;;;;;;;44.97;17.73;;;;;;;8.72;94.11;100377.84;5055582;28;20032;-61
2021/12/24 12:34:53;;;;;;;47.47;18.27;;;;;;;8.71;93.83;100392.91;5055188;28;20037;-62
2021/12/24 12:37:30;;;;;;;46.53;18.20;;;;;;;8.72;94.18;100378.66;5057759;28;20029;-61
2021/12/24 12:40:03;;;;;;;35.40;17.88;;;;;;;8.74;94.32;100378.50;5059531;28;20078;-61
2021/12/24 12:43:02;;;;;;;49.17;17.65;;;;;;;8.74;93.77;100381.16;5061185;28;20502;-61
2021/12/24 12:45:35;;;;;;;38.55;16.60;;;;;;;8.75;93.66;100380.97;5062299;28;20032;-62
2021/12/24 12:48:03;;;;;;;45.70;18.13;;;;;;;8.75;94.06;100380.16;5056045;28;20041;-61